sensor_id;sensor_type;location;lat;lon;timestamp;pressure;altitude;pressure_sealevel;temperature
45034;BMP280;30771;47.988;-4.186;2022-12-07T07:01:12;99931.34;;;2.06
45034;BMP280;30771;47.988;-4.186;2022-12-07T07:03:38;99941.56;;;2.08
45034;BMP280;30771;47.988;-4.186;2022-12-07T07:06:04;99939.78;;;2.08
45034;BMP280;30771;47.988;-4.186;2022-12-07T07:08:29;99942.38;;;2.08
45034;BMP280;30771;47.988;-4.186;2022-12-07T07:10:55;99937.19;;;2.08
45034;BMP280;30771;47.988;-4.186;2022-12-07T07:13:20;99943.69;;;2.12
45034;BMP280;30771;47.988;-4.186;2022-12-07T07:15:45;99948.91;;;2.12
45034;BMP280;30771;47.988;-4.186;2022-12-07T07:18:10;99959.28;;;2.12
45034;BMP280;30771;47.988;-4.186;2022-12-07T07:20:36;99963.66;;;2.12
45034;BMP280;30771;47.988;-4.186;2022-12-07T07:23:02;99961.22;;;2.10
45034;BMP280;30771;47.988;-4.186;2022-12-07T07:25:27;99957.13;;;2.08
45034;BMP280;30771;47.988;-4.186;2022-12-07T07:27:53;99963.16;;;2.08
45034;BMP280;30771;47.988;-4.186;2022-12-07T07:30:18;99977.97;;;2.16
45034;BMP280;30771;47.988;-4.186;2022-12-07T07:32:43;99976.50;;;2.13
45034;BMP280;30771;47.988;-4.186;2022-12-07T07:35:09;99983.00;;;2.17
45034;BMP280;30771;47.988;-4.186;2022-12-07T07:37:34;99985.25;;;2.12
45034;BMP280;30771;47.988;-4.186;2022-12-07T07:39:59;99987.53;;;2.15
45034;BMP280;30771;47.988;-4.186;2022-12-07T07:42:24;100001.25;;;2.25
45034;BMP280;30771;47.988;-4.186;2022-12-07T07:44:50;100012.94;;;2.29
45034;BMP280;30771;47.988;-4.186;2022-12-07T07:47:15;100011.47;;;2.27
45034;BMP280;30771;47.988;-4.186;2022-12-07T07:49:40;100020.72;;;2.29
45034;BMP280;30771;47.988;-4.186;2022-12-07T07:52:06;100032.09;;;2.28
45034;BMP280;30771;47.988;-4.186;2022-12-07T07:54:31;100023.97;;;2.23
45034;BMP280;30771;47.988;-4.186;2022-12-07T07:56:57;100035.50;;;2.29
45034;BMP280;30771;47.988;-4.186;2022-12-07T07:59:22;100043.28;;;2.29
45034;BMP280;30771;47.988;-4.186;2022-12-07T08:01:47;100041.22;;;2.32
45034;BMP280;30771;47.988;-4.186;2022-12-07T08:04:13;100042.97;;;2.32
45034;BMP280;30771;47.988;-4.186;2022-12-07T08:06:38;100060.41;;;2.39
45034;BMP280;30771;47.988;-4.186;2022-12-07T08:09:03;100068.56;;;2.44
45034;BMP280;30771;47.988;-4.186;2022-12-07T08:11:29;100066.63;;;2.46
45034;BMP280;30771;47.988;-4.186;2022-12-07T08:13:54;100076.44;;;2.52
45034;BMP280;30771;47.988;-4.186;2022-12-07T08:16:19;100084.22;;;2.52
45034;BMP280;30771;47.988;-4.186;2022-12-07T08:18:45;100096.69;;;2.49
45034;BMP280;30771;47.988;-4.186;2022-12-07T08:21:13;100107.16;;;2.57
45034;BMP280;30771;47.988;-4.186;2022-12-07T08:23:38;100113.47;;;2.54
45034;BMP280;30771;47.988;-4.186;2022-12-07T08:26:06;100123.09;;;2.62
45034;BMP280;30771;47.988;-4.186;2022-12-07T08:28:32;100126.50;;;2.62
45034;BMP280;30771;47.988;-4.186;2022-12-07T08:31:17;100135.63;;;2.66
45034;BMP280;30771;47.988;-4.186;2022-12-07T08:33:45;100132.50;;;2.63
45034;BMP280;30771;47.988;-4.186;2022-12-07T08:36:11;100145.72;;;2.69
45034;BMP280;30771;47.988;-4.186;2022-12-07T08:38:38;100146.38;;;2.71
45034;BMP280;30771;47.988;-4.186;2022-12-07T08:41:04;100120.16;;;2.57
45034;BMP280;30771;47.988;-4.186;2022-12-07T08:43:30;100156.84;;;2.80
45034;BMP280;30771;47.988;-4.186;2022-12-07T08:46:32;100156.19;;;2.78
45034;BMP280;30771;47.988;-4.186;2022-12-07T08:49:27;100168.63;;;2.92
45034;BMP280;30771;47.988;-4.186;2022-12-07T08:51:50;100175.94;;;2.96
45034;BMP280;30771;47.988;-4.186;2022-12-07T08:54:17;100185.72;;;3.02
45034;BMP280;30771;47.988;-4.186;2022-12-07T08:56:44;100190.34;;;3.08
45034;BMP280;30771;47.988;-4.186;2022-12-07T08:59:10;100183.19;;;3.10
45034;BMP280;30771;47.988;-4.186;2022-12-07T09:01:37;100199.69;;;3.19
45034;BMP280;30771;47.988;-4.186;2022-12-07T09:04:02;100205.50;;;3.21
45034;BMP280;30771;47.988;-4.186;2022-12-07T09:06:28;100211.56;;;3.29
45034;BMP280;30771;47.988;-4.186;2022-12-07T09:08:57;100216.69;;;3.39
45034;BMP280;30771;47.988;-4.186;2022-12-07T09:11:23;100221.59;;;3.42
45034;BMP280;30771;47.988;-4.186;2022-12-07T09:13:48;100234.16;;;3.55
45034;BMP280;30771;47.988;-4.186;2022-12-07T09:16:13;100232.88;;;3.59
45034;BMP280;30771;47.988;-4.186;2022-12-07T09:18:39;100251.34;;;3.73
45034;BMP280;30771;47.988;-4.186;2022-12-07T09:21:04;100252.47;;;3.79
45034;BMP280;30771;47.988;-4.186;2022-12-07T09:23:29;100264.59;;;3.88
45034;BMP280;30771;47.988;-4.186;2022-12-07T09:25:59;100269.78;;;3.96
45034;BMP280;30771;47.988;-4.186;2022-12-07T09:28:24;100292.50;;;4.11
45034;BMP280;30771;47.988;-4.186;2022-12-07T09:30:49;100282.38;;;4.08
45034;BMP280;30771;47.988;-4.186;2022-12-07T09:33:15;100315.97;;;4.28
45034;BMP280;30771;47.988;-4.186;2022-12-07T09:35:48;100320.25;;;4.37
45034;BMP280;30771;47.988;-4.186;2022-12-07T09:38:13;100329.72;;;4.46
45034;BMP280;30771;47.988;-4.186;2022-12-07T09:40:39;100344.53;;;4.53
45034;BMP280;30771;47.988;-4.186;2022-12-07T09:43:04;100342.41;;;4.57
45034;BMP280;30771;47.988;-4.186;2022-12-07T09:47:55;100386.00;;;4.80
45034;BMP280;30771;47.988;-4.186;2022-12-07T09:50:25;100392.38;;;4.86
45034;BMP280;30771;47.988;-4.186;2022-12-07T09:52:52;100405.28;;;4.95
45034;BMP280;30771;47.988;-4.186;2022-12-07T09:55:25;100411.97;;;4.98
45034;BMP280;30771;47.988;-4.186;2022-12-07T09:57:52;100413.44;;;5.00
45034;BMP280;30771;47.988;-4.186;2022-12-07T10:00:19;100438.22;;;5.13
45034;BMP280;30771;47.988;-4.186;2022-12-07T10:02:59;100451.94;;;5.23
45034;BMP280;30771;47.988;-4.186;2022-12-07T10:05:46;100453.09;;;5.20
45034;BMP280;30771;47.988;-4.186;2022-12-07T10:08:13;100485.56;;;5.34
45034;BMP280;30771;47.988;-4.186;2022-12-07T10:10:39;100490.13;;;5.40
45034;BMP280;30771;47.988;-4.186;2022-12-07T10:13:10;100491.59;;;5.50
45034;BMP280;30771;47.988;-4.186;2022-12-07T10:15:58;100492.91;;;5.54
45034;BMP280;30771;47.988;-4.186;2022-12-07T10:18:38;100515.56;;;5.70
45034;BMP280;30771;47.988;-4.186;2022-12-07T10:21:13;100527.00;;;5.77
45034;BMP280;30771;47.988;-4.186;2022-12-07T10:23:41;100535.84;;;5.76
45034;BMP280;30771;47.988;-4.186;2022-12-07T10:26:20;100556.06;;;5.90
45034;BMP280;30771;47.988;-4.186;2022-12-07T10:28:46;100566.19;;;6.01
45034;BMP280;30771;47.988;-4.186;2022-12-07T10:31:20;100574.84;;;6.18
45034;BMP280;30771;47.988;-4.186;2022-12-07T10:33:59;100588.72;;;6.34
45034;BMP280;30771;47.988;-4.186;2022-12-07T10:36:35;100594.75;;;6.43
45034;BMP280;30771;47.988;-4.186;2022-12-07T10:39:10;100619.56;;;6.47
45034;BMP280;30771;47.988;-4.186;2022-12-07T10:41:58;100621.53;;;6.53
45034;BMP280;30771;47.988;-4.186;2022-12-07T10:44:27;100616.75;;;6.56
45034;BMP280;30771;47.988;-4.186;2022-12-07T10:52:46;100624.44;;;6.58
45034;BMP280;30771;47.988;-4.186;2022-12-07T11:03:40;100624.53;;;6.81
45034;BMP280;30771;47.988;-4.186;2022-12-07T11:06:35;100615.41;;;6.85
45034;BMP280;30771;47.988;-4.186;2022-12-07T11:12:16;100598.84;;;6.92
45034;BMP280;30771;47.988;-4.186;2022-12-07T11:14:54;100600.94;;;6.97
45034;BMP280;30771;47.988;-4.186;2022-12-07T11:20:01;100595.72;;;6.97
45034;BMP280;30771;47.988;-4.186;2022-12-07T11:22:38;100599.72;;;7.07
45034;BMP280;30771;47.988;-4.186;2022-12-07T11:27:55;100596.44;;;7.13
45034;BMP280;30771;47.988;-4.186;2022-12-07T11:33:22;100593.06;;;7.27
45034;BMP280;30771;47.988;-4.186;2022-12-07T11:41:00;100578.94;;;7.36
45034;BMP280;30771;47.988;-4.186;2022-12-07T11:43:35;100598.16;;;7.52
45034;BMP280;30771;47.988;-4.186;2022-12-07T11:46:07;100589.63;;;7.58
45034;BMP280;30771;47.988;-4.186;2022-12-07T11:48:38;100598.22;;;7.66
45034;BMP280;30771;47.988;-4.186;2022-12-07T11:51:10;100596.41;;;7.67
45034;BMP280;30771;47.988;-4.186;2022-12-07T11:53:49;100603.38;;;7.74
45034;BMP280;30771;47.988;-4.186;2022-12-07T11:56:20;100601.97;;;7.72
45034;BMP280;30771;47.988;-4.186;2022-12-07T12:03:47;100596.59;;;7.42
45034;BMP280;30771;47.988;-4.186;2022-12-07T12:06:13;100590.94;;;7.31
45034;BMP280;30771;47.988;-4.186;2022-12-07T12:08:46;100595.06;;;7.25
45034;BMP280;30771;47.988;-4.186;2022-12-07T12:16:52;100597.38;;;7.20
45034;BMP280;30771;47.988;-4.186;2022-12-07T12:21:53;100588.59;;;7.05
45034;BMP280;30771;47.988;-4.186;2022-12-07T12:24:23;100592.22;;;7.04
45034;BMP280;30771;47.988;-4.186;2022-12-07T12:26:55;100600.22;;;7.11
45034;BMP280;30771;47.988;-4.186;2022-12-07T12:29:32;100585.34;;;7.11
45034;BMP280;30771;47.988;-4.186;2022-12-07T12:32:14;100589.09;;;7.09
45034;BMP280;30771;47.988;-4.186;2022-12-07T12:34:59;100609.03;;;7.10
45034;BMP280;30771;47.988;-4.186;2022-12-07T12:42:47;100598.72;;;7.16
45034;BMP280;30771;47.988;-4.186;2022-12-07T12:45:27;100592.47;;;7.17
45034;BMP280;30771;47.988;-4.186;2022-12-07T12:50:47;100587.88;;;7.19
45034;BMP280;30771;47.988;-4.186;2022-12-07T12:53:16;100585.75;;;7.23
45034;BMP280;30771;47.988;-4.186;2022-12-07T12:55:57;100587.00;;;7.27
45034;BMP280;30771;47.988;-4.186;2022-12-07T12:58:31;100578.31;;;7.34
45034;BMP280;30771;47.988;-4.186;2022-12-07T13:03:51;100587.44;;;7.61
45034;BMP280;30771;47.988;-4.186;2022-12-07T13:06:35;100596.53;;;7.73
45034;BMP280;30771;47.988;-4.186;2022-12-07T13:09:01;100605.16;;;7.82
45034;BMP280;30771;47.988;-4.186;2022-12-07T13:11:37;100614.13;;;7.87
45034;BMP280;30771;47.988;-4.186;2022-12-07T13:17:57;100610.00;;;7.93
45034;BMP280;30771;47.988;-4.186;2022-12-07T13:20:02;100614.84;;;7.96
45034;BMP280;30771;47.988;-4.186;2022-12-07T13:25:10;100625.97;;;7.98
45034;BMP280;30771;47.988;-4.186;2022-12-07T13:27:41;100628.78;;;7.96
45034;BMP280;30771;47.988;-4.186;2022-12-07T13:30:20;100637.00;;;7.93
45034;BMP280;30771;47.988;-4.186;2022-12-07T13:32:57;100633.59;;;7.93
45034;BMP280;30771;47.988;-4.186;2022-12-07T13:35:32;100634.56;;;7.92
45034;BMP280;30771;47.988;-4.186;2022-12-07T13:37:59;100636.00;;;7.94
45034;BMP280;30771;47.988;-4.186;2022-12-07T13:40:26;100628.78;;;7.96
45034;BMP280;30771;47.988;-4.186;2022-12-07T13:42:59;100636.75;;;8.03
45034;BMP280;30771;47.988;-4.186;2022-12-07T13:45:30;100634.41;;;8.08
45034;BMP280;30771;47.988;-4.186;2022-12-07T13:47:57;100636.22;;;8.07
45034;BMP280;30771;47.988;-4.186;2022-12-07T13:50:29;100644.50;;;8.19
45034;BMP280;30771;47.988;-4.186;2022-12-07T13:52:57;100645.75;;;8.23
45034;BMP280;30771;47.988;-4.186;2022-12-07T13:55:22;100645.88;;;8.29
45034;BMP280;30771;47.988;-4.186;2022-12-07T13:57:50;100652.22;;;8.35
45034;BMP280;30771;47.988;-4.186;2022-12-07T14:00:23;100658.72;;;8.39
45034;BMP280;30771;47.988;-4.186;2022-12-07T14:05:30;100656.28;;;8.52
45034;BMP280;30771;47.988;-4.186;2022-12-07T14:10:34;100657.56;;;8.56
45034;BMP280;30771;47.988;-4.186;2022-12-07T14:13:01;100662.72;;;8.64
45034;BMP280;30771;47.988;-4.186;2022-12-07T14:15:29;100679.09;;;8.66
45034;BMP280;30771;47.988;-4.186;2022-12-07T14:17:56;100669.13;;;8.62
45034;BMP280;30771;47.988;-4.186;2022-12-07T14:22:57;100675.03;;;8.49
45034;BMP280;30771;47.988;-4.186;2022-12-07T14:25:24;100663.97;;;8.39
45034;BMP280;30771;47.988;-4.186;2022-12-07T14:27:58;100669.22;;;8.39
45034;BMP280;30771;47.988;-4.186;2022-12-07T14:30:27;100655.19;;;8.32
45034;BMP280;30771;47.988;-4.186;2022-12-07T14:33:04;100652.22;;;8.35
45034;BMP280;30771;47.988;-4.186;2022-12-07T14:35:30;100641.59;;;8.28
45034;BMP280;30771;47.988;-4.186;2022-12-07T14:37:56;100646.59;;;8.23
45034;BMP280;30771;47.988;-4.186;2022-12-07T14:40:24;100644.81;;;8.16
45034;BMP280;30771;47.988;-4.186;2022-12-07T14:42:55;100638.84;;;8.07
45034;BMP280;30771;47.988;-4.186;2022-12-07T14:45:22;100634.31;;;8.01
45034;BMP280;30771;47.988;-4.186;2022-12-07T14:47:48;100649.22;;;8.01
45034;BMP280;30771;47.988;-4.186;2022-12-07T14:50:16;100642.06;;;7.95
45034;BMP280;30771;47.988;-4.186;2022-12-07T14:52:43;100644.88;;;7.93
45034;BMP280;30771;47.988;-4.186;2022-12-07T14:55:31;100646.50;;;7.94
45034;BMP280;30771;47.988;-4.186;2022-12-07T14:57:57;100634.91;;;7.89
45034;BMP280;30771;47.988;-4.186;2022-12-07T15:00:26;100609.22;;;7.84
45034;BMP280;30771;47.988;-4.186;2022-12-07T15:02:52;100584.22;;;7.74
45034;BMP280;30771;47.988;-4.186;2022-12-07T15:05:18;100587.25;;;7.71
45034;BMP280;30771;47.988;-4.186;2022-12-07T15:07:44;100569.75;;;7.63
45034;BMP280;30771;47.988;-4.186;2022-12-07T15:10:31;100548.69;;;7.57
45034;BMP280;30771;47.988;-4.186;2022-12-07T15:12:57;100544.13;;;7.51
45034;BMP280;30771;47.988;-4.186;2022-12-07T15:15:22;100525.22;;;7.40
45034;BMP280;30771;47.988;-4.186;2022-12-07T15:17:47;100508.88;;;7.38
45034;BMP280;30771;47.988;-4.186;2022-12-07T15:20:15;100518.56;;;7.38
45034;BMP280;30771;47.988;-4.186;2022-12-07T15:22:41;100511.22;;;7.33
45034;BMP280;30771;47.988;-4.186;2022-12-07T15:25:07;100500.44;;;7.28
45034;BMP280;30771;47.988;-4.186;2022-12-07T15:27:33;100492.97;;;7.17
45034;BMP280;30771;47.988;-4.186;2022-12-07T15:29:58;100500.41;;;7.14
45034;BMP280;30771;47.988;-4.186;2022-12-07T15:32:24;100507.63;;;7.12
45034;BMP280;30771;47.988;-4.186;2022-12-07T15:34:49;100514.16;;;7.08
45034;BMP280;30771;47.988;-4.186;2022-12-07T15:37:14;100512.25;;;7.02
45034;BMP280;30771;47.988;-4.186;2022-12-07T15:39:40;100519.78;;;6.97
45034;BMP280;30771;47.988;-4.186;2022-12-07T15:42:05;100517.69;;;6.92
45034;BMP280;30771;47.988;-4.186;2022-12-07T15:44:30;100509.88;;;6.84
45034;BMP280;30771;47.988;-4.186;2022-12-07T15:46:55;100522.31;;;6.82
45034;BMP280;30771;47.988;-4.186;2022-12-07T15:49:21;100511.56;;;6.77
45034;BMP280;30771;47.988;-4.186;2022-12-07T15:51:46;100504.56;;;6.70
45034;BMP280;30771;47.988;-4.186;2022-12-07T15:54:14;100516.81;;;6.69
45034;BMP280;30771;47.988;-4.186;2022-12-07T15:56:40;100506.56;;;6.59
45034;BMP280;30771;47.988;-4.186;2022-12-07T15:59:06;100508.69;;;6.56
45034;BMP280;30771;47.988;-4.186;2022-12-07T16:01:31;100509.69;;;6.55
45034;BMP280;30771;47.988;-4.186;2022-12-07T16:03:57;100500.56;;;6.51
45034;BMP280;30771;47.988;-4.186;2022-12-07T16:06:22;100493.53;;;6.51
45034;BMP280;30771;47.988;-4.186;2022-12-07T16:08:47;100481.28;;;6.44
45034;BMP280;30771;47.988;-4.186;2022-12-07T16:11:13;100475.72;;;6.47
45034;BMP280;30771;47.988;-4.186;2022-12-07T16:13:38;100466.09;;;6.47
45034;BMP280;30771;47.988;-4.186;2022-12-07T16:16:06;100470.66;;;6.45
45034;BMP280;30771;47.988;-4.186;2022-12-07T16:18:32;100456.91;;;6.43
45034;BMP280;30771;47.988;-4.186;2022-12-07T16:20:57;100453.84;;;6.40
45034;BMP280;30771;47.988;-4.186;2022-12-07T16:23:22;100437.88;;;6.35
45034;BMP280;30771;47.988;-4.186;2022-12-07T16:25:47;100442.59;;;6.31
45034;BMP280;30771;47.988;-4.186;2022-12-07T16:28:13;100429.75;;;6.22
45034;BMP280;30771;47.988;-4.186;2022-12-07T16:30:38;100418.00;;;6.18
45034;BMP280;30771;47.988;-4.186;2022-12-07T16:33:03;100407.03;;;6.14
45034;BMP280;30771;47.988;-4.186;2022-12-07T16:35:28;100396.28;;;6.09
45034;BMP280;30771;47.988;-4.186;2022-12-07T16:37:54;100400.72;;;6.09
45034;BMP280;30771;47.988;-4.186;2022-12-07T16:40:19;100389.97;;;6.04
45034;BMP280;30771;47.988;-4.186;2022-12-07T16:42:44;100392.88;;;6.09
45034;BMP280;30771;47.988;-4.186;2022-12-07T16:45:10;100382.25;;;6.10
45034;BMP280;30771;47.988;-4.186;2022-12-07T16:47:37;100374.59;;;6.09
45034;BMP280;30771;47.988;-4.186;2022-12-07T16:50:03;100362.31;;;6.09
45034;BMP280;30771;47.988;-4.186;2022-12-07T16:52:28;100354.13;;;6.12
45034;BMP280;30771;47.988;-4.186;2022-12-07T16:54:54;100359.19;;;6.14
45034;BMP280;30771;47.988;-4.186;2022-12-07T16:57:19;100354.75;;;6.14
45034;BMP280;30771;47.988;-4.186;2022-12-07T16:59:45;100346.78;;;6.16
45034;BMP280;30771;47.988;-4.186;2022-12-07T17:02:11;100338.44;;;6.12
45034;BMP280;30771;47.988;-4.186;2022-12-07T17:04:36;100334.34;;;6.18
45034;BMP280;30771;47.988;-4.186;2022-12-07T17:07:02;100333.34;;;6.19
45034;BMP280;30771;47.988;-4.186;2022-12-07T17:09:27;100332.88;;;6.23
45034;BMP280;30771;47.988;-4.186;2022-12-07T17:11:52;100315.19;;;6.25
45034;BMP280;30771;47.988;-4.186;2022-12-07T17:14:18;100304.38;;;6.28
45034;BMP280;30771;47.988;-4.186;2022-12-07T17:16:43;100298.78;;;6.31
45034;BMP280;30771;47.988;-4.186;2022-12-07T17:19:13;100290.16;;;6.31
45034;BMP280;30771;47.988;-4.186;2022-12-07T17:21:39;100295.22;;;6.32
45034;BMP280;30771;47.988;-4.186;2022-12-07T17:24:07;100289.34;;;6.30
45034;BMP280;30771;47.988;-4.186;2022-12-07T17:26:33;100282.31;;;6.31
45034;BMP280;30771;47.988;-4.186;2022-12-07T17:28:58;100282.78;;;6.34
45034;BMP280;30771;47.988;-4.186;2022-12-07T17:31:24;100267.91;;;6.35
45034;BMP280;30771;47.988;-4.186;2022-12-07T17:33:50;100264.13;;;6.37
45034;BMP280;30771;47.988;-4.186;2022-12-07T17:36:24;100258.91;;;6.37
45034;BMP280;30771;47.988;-4.186;2022-12-07T17:38:50;100262.16;;;6.39
45034;BMP280;30771;47.988;-4.186;2022-12-07T17:41:22;100253.50;;;6.39
45034;BMP280;30771;47.988;-4.186;2022-12-07T17:43:48;100235.53;;;6.36
45034;BMP280;30771;47.988;-4.186;2022-12-07T17:46:13;100227.69;;;6.36
45034;BMP280;30771;47.988;-4.186;2022-12-07T17:48:38;100216.78;;;6.32
45034;BMP280;30771;47.988;-4.186;2022-12-07T17:51:04;100208.81;;;6.26
45034;BMP280;30771;47.988;-4.186;2022-12-07T17:53:29;100186.31;;;6.17
45034;BMP280;30771;47.988;-4.186;2022-12-07T17:55:55;100182.25;;;6.14
45034;BMP280;30771;47.988;-4.186;2022-12-07T17:58:20;100162.06;;;6.08
45034;BMP280;30771;47.988;-4.186;2022-12-07T18:00:45;100150.47;;;6.11
45034;BMP280;30771;47.988;-4.186;2022-12-07T18:03:11;100132.50;;;6.08
45034;BMP280;30771;47.988;-4.186;2022-12-07T18:05:37;100121.56;;;6.04
45034;BMP280;30771;47.988;-4.186;2022-12-07T18:08:04;100121.50;;;5.98
45034;BMP280;30771;47.988;-4.186;2022-12-07T18:10:29;100101.78;;;5.87
45034;BMP280;30771;47.988;-4.186;2022-12-07T18:12:55;100112.72;;;5.91
45034;BMP280;30771;47.988;-4.186;2022-12-07T18:15:20;100098.75;;;5.84
45034;BMP280;30771;47.988;-4.186;2022-12-07T18:17:45;100096.81;;;5.77
45034;BMP280;30771;47.988;-4.186;2022-12-07T18:20:11;100089.59;;;5.79
45034;BMP280;30771;47.988;-4.186;2022-12-07T18:22:36;100082.47;;;5.73
45034;BMP280;30771;47.988;-4.186;2022-12-07T18:25:02;100075.59;;;5.72
45034;BMP280;30771;47.988;-4.186;2022-12-07T18:27:28;100064.44;;;5.64
45034;BMP280;30771;47.988;-4.186;2022-12-07T18:29:53;100060.38;;;5.61
45034;BMP280;30771;47.988;-4.186;2022-12-07T18:32:18;100050.75;;;5.62
45034;BMP280;30771;47.988;-4.186;2022-12-07T18:34:45;100033.31;;;5.54
45034;BMP280;30771;47.988;-4.186;2022-12-07T18:37:10;100024.88;;;5.52
45034;BMP280;30771;47.988;-4.186;2022-12-07T18:39:35;100017.06;;;5.44
45034;BMP280;30771;47.988;-4.186;2022-12-07T18:42:00;100012.84;;;5.43
45034;BMP280;30771;47.988;-4.186;2022-12-07T18:44:27;100013.56;;;5.37
45034;BMP280;30771;47.988;-4.186;2022-12-07T18:46:53;100002.34;;;5.29
45034;BMP280;30771;47.988;-4.186;2022-12-07T18:49:18;99997.81;;;5.23
45034;BMP280;30771;47.988;-4.186;2022-12-07T18:51:43;99997.03;;;5.14
45034;BMP280;30771;47.988;-4.186;2022-12-07T18:54:08;99988.47;;;5.06
45034;BMP280;30771;47.988;-4.186;2022-12-07T18:56:34;99979.53;;;5.00
45034;BMP280;30771;47.988;-4.186;2022-12-07T18:59:00;99972.22;;;4.95
45034;BMP280;30771;47.988;-4.186;2022-12-07T19:01:26;99957.72;;;4.93
45034;BMP280;30771;47.988;-4.186;2022-12-07T19:03:52;99947.97;;;4.87
45034;BMP280;30771;47.988;-4.186;2022-12-07T19:06:17;99948.97;;;4.86
45034;BMP280;30771;47.988;-4.186;2022-12-07T19:08:42;99945.69;;;4.84
45034;BMP280;30771;47.988;-4.186;2022-12-07T19:11:22;99936.44;;;4.81
45034;BMP280;30771;47.988;-4.186;2022-12-07T19:13:48;99934.97;;;4.79
45034;BMP280;30771;47.988;-4.186;2022-12-07T19:16:14;99922.63;;;4.73
45034;BMP280;30771;47.988;-4.186;2022-12-07T19:18:39;99926.19;;;4.72
45034;BMP280;30771;47.988;-4.186;2022-12-07T19:21:04;99930.97;;;4.68
45034;BMP280;30771;47.988;-4.186;2022-12-07T19:23:30;99915.03;;;4.63
45034;BMP280;30771;47.988;-4.186;2022-12-07T19:25:55;99898.91;;;4.60
45034;BMP280;30771;47.988;-4.186;2022-12-07T19:28:20;99883.59;;;4.57
45034;BMP280;30771;47.988;-4.186;2022-12-07T19:30:45;99866.88;;;4.51
45034;BMP280;30771;47.988;-4.186;2022-12-07T19:33:11;99853.38;;;4.48
45034;BMP280;30771;47.988;-4.186;2022-12-07T19:35:36;99862.91;;;4.55
45034;BMP280;30771;47.988;-4.186;2022-12-07T19:38:01;99847.09;;;4.57
45034;BMP280;30771;47.988;-4.186;2022-12-07T19:40:26;99839.28;;;4.57
45034;BMP280;30771;47.988;-4.186;2022-12-07T19:42:52;99828.69;;;4.58
45034;BMP280;30771;47.988;-4.186;2022-12-07T19:45:17;99819.41;;;4.56
45034;BMP280;30771;47.988;-4.186;2022-12-07T19:47:42;99807.91;;;4.50
45034;BMP280;30771;47.988;-4.186;2022-12-07T19:50:08;99784.78;;;4.47
45034;BMP280;30771;47.988;-4.186;2022-12-07T19:52:33;99773.06;;;4.51
45034;BMP280;30771;47.988;-4.186;2022-12-07T19:54:58;99784.34;;;4.66
45034;BMP280;30771;47.988;-4.186;2022-12-07T19:57:24;99780.91;;;4.66
45034;BMP280;30771;47.988;-4.186;2022-12-07T19:59:49;99764.28;;;4.67
45034;BMP280;30771;47.988;-4.186;2022-12-07T20:02:15;99736.34;;;4.53
45034;BMP280;30771;47.988;-4.186;2022-12-07T20:04:40;99753.50;;;4.70
45034;BMP280;30771;47.988;-4.186;2022-12-07T20:07:06;99714.97;;;4.57
45034;BMP280;30771;47.988;-4.186;2022-12-07T20:09:31;99723.13;;;4.77
45034;BMP280;30771;47.988;-4.186;2022-12-07T20:11:57;99717.38;;;4.81
45034;BMP280;30771;47.988;-4.186;2022-12-07T20:14:22;99715.72;;;4.88
45034;BMP280;30771;47.988;-4.186;2022-12-07T20:16:48;99710.75;;;4.93
45034;BMP280;30771;47.988;-4.186;2022-12-07T20:19:14;99702.13;;;4.93
45034;BMP280;30771;47.988;-4.186;2022-12-07T20:21:40;99699.06;;;5.04
45034;BMP280;30771;47.988;-4.186;2022-12-07T20:24:09;99698.50;;;5.09
45034;BMP280;30771;47.988;-4.186;2022-12-07T20:26:35;99683.66;;;5.09
45034;BMP280;30771;47.988;-4.186;2022-12-07T20:29:06;99678.09;;;5.12
45034;BMP280;30771;47.988;-4.186;2022-12-07T20:31:31;99672.06;;;5.12
45034;BMP280;30771;47.988;-4.186;2022-12-07T20:33:57;99665.53;;;5.16
45034;BMP280;30771;47.988;-4.186;2022-12-07T20:36:22;99656.59;;;5.10
45034;BMP280;30771;47.988;-4.186;2022-12-07T20:38:47;99655.88;;;5.16
45034;BMP280;30771;47.988;-4.186;2022-12-07T20:41:13;99654.13;;;5.23
45034;BMP280;30771;47.988;-4.186;2022-12-07T20:43:39;99638.13;;;5.26
45034;BMP280;30771;47.988;-4.186;2022-12-07T20:46:04;99639.22;;;5.32
45034;BMP280;30771;47.988;-4.186;2022-12-07T20:48:29;99637.44;;;5.32
45034;BMP280;30771;47.988;-4.186;2022-12-07T20:51:04;99633.25;;;5.38
45034;BMP280;30771;47.988;-4.186;2022-12-07T20:53:29;99629.06;;;5.37
45034;BMP280;30771;47.988;-4.186;2022-12-07T20:55:54;99619.16;;;5.32
45034;BMP280;30771;47.988;-4.186;2022-12-07T20:58:20;99626.50;;;5.43
45034;BMP280;30771;47.988;-4.186;2022-12-07T21:00:45;99624.50;;;5.45
45034;BMP280;30771;47.988;-4.186;2022-12-07T21:03:10;99620.91;;;5.46
45034;BMP280;30771;47.988;-4.186;2022-12-07T21:05:35;99611.09;;;5.48
45034;BMP280;30771;47.988;-4.186;2022-12-07T21:08:01;99618.38;;;5.53
45034;BMP280;30771;47.988;-4.186;2022-12-07T21:10:27;99601.66;;;5.47
45034;BMP280;30771;47.988;-4.186;2022-12-07T21:12:52;99607.94;;;5.53
45034;BMP280;30771;47.988;-4.186;2022-12-07T21:15:17;99609.34;;;5.55
45034;BMP280;30771;47.988;-4.186;2022-12-07T21:17:43;99623.47;;;5.61
45034;BMP280;30771;47.988;-4.186;2022-12-07T21:20:08;99628.69;;;5.61
45034;BMP280;30771;47.988;-4.186;2022-12-07T21:22:33;99627.72;;;5.62
45034;BMP280;30771;47.988;-4.186;2022-12-07T21:24:59;99620.06;;;5.60
45034;BMP280;30771;47.988;-4.186;2022-12-07T21:27:24;99615.44;;;5.62
45034;BMP280;30771;47.988;-4.186;2022-12-07T21:29:49;99628.00;;;5.67
45034;BMP280;30771;47.988;-4.186;2022-12-07T21:32:14;99632.41;;;5.66
45034;BMP280;30771;47.988;-4.186;2022-12-07T21:34:40;99627.78;;;5.68
45034;BMP280;30771;47.988;-4.186;2022-12-07T21:37:05;99626.00;;;5.69
45034;BMP280;30771;47.988;-4.186;2022-12-07T21:39:30;99619.34;;;5.66
45034;BMP280;30771;47.988;-4.186;2022-12-07T21:41:56;99629.19;;;5.71
45034;BMP280;30771;47.988;-4.186;2022-12-07T21:44:21;99615.72;;;5.67
45034;BMP280;30771;47.988;-4.186;2022-12-07T21:46:46;99628.84;;;5.74
45034;BMP280;30771;47.988;-4.186;2022-12-07T21:49:13;99616.59;;;5.74
45034;BMP280;30771;47.988;-4.186;2022-12-07T21:51:40;99615.78;;;5.74
45034;BMP280;30771;47.988;-4.186;2022-12-07T21:54:07;99622.44;;;5.76
45034;BMP280;30771;47.988;-4.186;2022-12-07T21:56:37;99624.25;;;5.76
45034;BMP280;30771;47.988;-4.186;2022-12-07T21:59:05;99623.44;;;5.75
45034;BMP280;30771;47.988;-4.186;2022-12-07T22:01:33;99613.53;;;5.71
45034;BMP280;30771;47.988;-4.186;2022-12-07T22:03:59;99622.19;;;5.71
45034;BMP280;30771;47.988;-4.186;2022-12-07T22:06:24;99626.22;;;5.74
45034;BMP280;30771;47.988;-4.186;2022-12-07T22:08:51;99630.63;;;5.73
45034;BMP280;30771;47.988;-4.186;2022-12-07T22:11:17;99634.22;;;5.72
45034;BMP280;30771;47.988;-4.186;2022-12-07T22:13:43;99635.03;;;5.73